Current Conditions
Mostly Clear
Conditions



Pressure
1007.79 (hPa) - 29.76 (inHG)
Visibility

9.7 (km) - 6.0 (miles)
Temperature
28  °C
Temperature
13  °C
Dewpoint
40  %
 Humidity
Wind Speed
19  km/h
10  kts
12  mph
5.4  m/s
Wind Direction
N
45°
E
90°
135°
S
180°
225°
W
270°
315°
 30°

North North
East
Airport Data
LFMN
Nice-Côte d'Azur Airport
Metar :LFMN 211830Z 03010KT CAVOK 28/13 Q1008 NOSIG
Sun 21st July 20:30 pm
Raw Metar Info
Raw METAR is the most common format in the world for the transmission of observational weather data. It is highly standardized through the International Civil Aviation Organization (ICAO), which allows it to be understood throughout most of the world.
API Info
Data Provided by
https://www.checkwx.com/weather/LFMN

Aviation Weather providing METAR, TAF, AIRMET, SIGMET and OUTLOOK Weather Reports
© Info
CSS/SVG/PHP scripts were developed by weather34.com for use in the weather34 template © 2015-2024

Guide Info provided by Metar-Wikipedia